Time;durP1;ratioP1;P1;durP2;ratioP2;P2;SDS_P1;SDS_P2;PMS_P1;PMS_P2;Temp;Humidity;BMP_temperature;BMP_pressure;BME280_temperature;BME280_humidity;BME280_pressure;Samples;Min_cycle;Max_cycle;Signal;HPM_P1;HPM_P2
2022/01/29 00:01:01;;;;;;;;;;;;;;;;;;;;;
2022/01/29 00:04:24;;;;;;;7.40;5.20;;;;;;;20.25;31.46;101086.90;101901;1334;74852;-84
2022/01/29 00:10:22;;;;;;;6.70;4.60;;;;;;;20.25;31.44;101088.70;102696;1320;61231;-84
2022/01/29 00:16:44;;;;;;;;;;;;;;;;;;;;;
2022/01/29 00:19:33;;;;;;;7.40;4.60;;;;;;;20.25;31.46;101114.06;103644;1319;61233;-84
2022/01/29 00:22:40;;;;;;;6.40;4.40;;;;;;;20.26;31.47;101116.89;103462;1319;61326;-86
2022/01/29 00:26:01;;;;;;;7.90;4.70;;;;;;;20.26;31.44;101122.06;102967;1325;73770;-85
2022/01/29 00:29:04;;;;;;;;;;;;;;;;;;;;;
2022/01/29 00:32:01;;;;;;;8.30;5.20;;;;;;;20.26;31.53;101135.98;102262;1334;61715;-83
2022/01/29 00:35:17;;;;;;;7.00;4.90;;;;;;;20.27;31.42;101131.69;102264;1335;61385;-82
2022/01/29 00:38:18;;;;;;;;;;;;;;;;;;;;;
2022/01/29 00:41:16;;;;;;;6.60;4.30;;;;;;;20.25;31.38;101132.83;100904;1354;75055;-84
2022/01/29 00:44:14;;;;;;;6.40;4.70;;;;;;;20.26;31.27;101130.27;101045;1354;61394;-84
2022/01/29 00:47:08;;;;;;;6.80;4.90;;;;;;;20.27;31.37;101133.27;100501;1355;61803;-84
2022/01/29 00:50:17;;;;;;;6.70;4.20;;;;;;;20.27;31.48;101130.79;100875;1353;72983;-80
2022/01/29 00:53:11;;;;;;;6.70;4.40;;;;;;;20.27;31.40;101133.99;100478;1359;76070;-78
2022/01/29 00:56:17;;;;;;;6.80;4.70;;;;;;;20.27;31.36;101128.82;100465;1357;61593;-81
2022/01/29 00:59:24;;;;;;;7.60;4.70;;;;;;;20.26;31.33;101132.95;100578;1357;61213;-85
2022/01/29 01:02:22;;;;;;;7.90;5.10;;;;;;;20.26;31.49;101136.70;100495;1355;73992;-79
2022/01/29 01:05:05;;;;;;;6.70;4.50;;;;;;;20.27;31.46;101139.19;100726;1355;76293;-83
2022/01/29 01:08:18;;;;;;;;;;;;;;;;;;;;;
2022/01/29 01:11:16;;;;;;;6.50;4.50;;;;;;;20.27;31.39;101139.73;100631;1354;61556;-88
2022/01/29 01:14:43;;;;;;;6.00;4.40;;;;;;;20.25;31.49;101139.81;100811;1354;70629;-82
2022/01/29 01:17:34;;;;;;;6.40;4.40;;;;;;;20.25;31.39;101137.13;101292;1352;74986;-82
2022/01/29 01:20:30;;;;;;;7.00;4.30;;;;;;;20.26;31.37;101129.77;101373;1351;61761;-84
2022/01/29 01:23:28;;;;;;;6.70;4.60;;;;;;;20.25;31.49;101126.20;100884;1355;61409;-82
2022/01/29 01:26:44;;;;;;;7.10;4.60;;;;;;;20.26;31.23;101130.82;101141;1354;71939;-83
2022/01/29 01:29:49;;;;;;;;;;;;;;;;;;;;;
2022/01/29 01:32:55;;;;;;;7.20;4.40;;;;;;;20.25;31.38;101123.21;101016;1354;61287;-87
2022/01/29 01:36:04;;;;;;;4.70;2.90;;;;;;;20.26;31.37;101124.38;101109;1352;61275;-84
2022/01/29 01:39:03;;;;;;;;;;;;;;;;;;;;;
2022/01/29 01:42:04;;;;;;;6.80;4.40;;;;;;;20.25;31.36;101124.25;101292;1349;76009;-83
2022/01/29 01:45:09;;;;;;;6.80;4.50;;;;;;;20.26;31.32;101125.30;101496;1346;61306;-84
2022/01/29 01:48:07;;;;;;;6.20;4.50;;;;;;;20.25;31.49;101124.77;101543;1348;60494;-81
2022/01/29 01:50:45;;;;;;;8.20;4.60;;;;;;;20.26;31.23;101124.24;101455;1348;74335;-82
2022/01/29 01:53:59;;;;;;;6.00;4.40;;;;;;;20.26;31.37;101125.84;101637;1345;76312;-86
2022/01/29 01:56:45;;;;;;;7.90;5.00;;;;;;;20.25;31.46;101127.82;101699;1342;61716;-85
2022/01/29 01:59:28;;;;;;;;;;;;;;;;;;;;;
2022/01/29 02:02:21;;;;;;;8.70;4.60;;;;;;;20.25;31.42;101132.29;101957;1336;72945;-78
2022/01/29 02:05:21;;;;;;;;;;;;;;;;;;;;;
2022/01/29 02:07:58;;;;;;;7.50;4.50;;;;;;;20.26;31.34;101133.16;102298;1333;61747;-82
2022/01/29 02:10:52;;;;;;;7.50;4.50;;;;;;;20.26;31.35;101138.89;102428;1329;61252;-82
2022/01/29 02:14:00;;;;;;;7.30;4.30;;;;;;;20.25;31.33;101136.95;102470;1331;71628;-81
2022/01/29 02:17:09;;;;;;;7.40;4.50;;;;;;;20.25;31.30;101146.25;102487;1331;74684;-84
2022/01/29 02:20:20;;;;;;;8.30;4.60;;;;;;;20.24;31.35;101151.81;102313;1333;61175;-83
2022/01/29 02:23:07;;;;;;;8.70;4.50;;;;;;;20.25;31.36;101155.20;102207;1333;61300;-87
2022/01/29 02:26:27;;;;;;;;;;;;;;;;;;;;;
2022/01/29 02:29:30;;;;;;;;;;;;;;;;;;;;;
2022/01/29 02:32:39;;;;;;;7.20;4.90;;;;;;;20.24;31.35;101163.82;101808;1341;61519;-83
2022/01/29 02:35:18;;;;;;;7.10;4.70;;;;;;;20.24;31.33;101170.77;101663;1345;61384;-86
2022/01/29 02:38:33;;;;;;;6.60;4.30;;;;;;;20.24;31.35;101171.14;101655;1345;73690;-78
2022/01/29 02:41:42;;;;;;;6.30;4.10;;;;;;;20.24;31.37;101171.84;101254;1352;74885;-84
2022/01/29 02:44:35;;;;;;;6.20;4.40;;;;;;;20.25;31.32;101178.62;101238;1352;61355;-82
2022/01/29 02:47:45;;;;;;;;;;;;;;;;;;;;;
2022/01/29 02:50:31;;;;;;;6.90;4.80;;;;;;;20.25;31.35;101187.56;100257;1360;71934;-83
2022/01/29 02:53:26;;;;;;;7.40;4.50;;;;;;;20.25;31.37;101191.46;100389;1361;76035;-84
2022/01/29 02:56:15;;;;;;;8.40;4.50;;;;;;;20.24;31.34;101193.31;100393;1357;61396;-85
2022/01/29 02:59:25;;;;;;;6.40;4.60;;;;;;;20.25;31.29;101196.13;100515;1357;61266;-90
2022/01/29 03:02:51;;;;;;;;;;;;;;;;;;;;;
2022/01/29 03:05:43;;;;;;;6.60;4.30;;;;;;;20.24;31.27;101192.60;100620;1351;74896;-81
2022/01/29 03:09:10;;;;;;;7.80;4.80;;;;;;;20.24;31.37;101195.98;101334;1346;61556;-84
2022/01/29 03:12:03;;;;;;;8.10;4.70;;;;;;;20.25;31.15;101195.79;101660;1342;61113;-82
2022/01/29 03:15:16;;;;;;;7.90;5.00;;;;;;;20.24;31.33;101197.23;101652;1345;74345;-80
2022/01/29 03:18:23;;;;;;;8.70;5.00;;;;;;;20.25;31.20;101200.77;101697;1340;75997;-81
2022/01/29 03:21:20;;;;;;;7.60;5.10;;;;;;;20.24;31.23;101201.54;101804;1340;61892;-84
2022/01/29 03:24:36;;;;;;;6.30;4.50;;;;;;;20.24;31.27;101207.08;102210;1329;61322;-83
2022/01/29 03:27:26;;;;;;;6.70;4.40;;;;;;;20.24;31.23;101209.77;102593;1326;74297;-82
2022/01/29 03:30:39;;;;;;;8.10;4.70;;;;;;;20.25;31.31;101214.90;102947;1325;75826;-83
2022/01/29 03:33:34;;;;;;;7.50;4.50;;;;;;;20.24;31.32;101214.39;102510;1331;61359;-84
2022/01/29 03:37:16;;;;;;;6.90;4.60;;;;;;;20.24;31.26;101214.05;101994;1337;61377;-86
2022/01/29 03:39:56;;;;;;;7.40;4.60;;;;;;;20.24;31.31;101222.07;101867;1337;73100;-85
2022/01/29 03:43:02;;;;;;;6.30;4.30;;;;;;;20.24;31.23;101226.73;101733;1343;75879;-86
2022/01/29 03:46:10;;;;;;;6.40;4.40;;;;;;;20.24;31.30;101227.24;101774;1343;61462;-77
2022/01/29 03:49:16;;;;;;;8.70;4.20;;;;;;;20.25;31.17;101233.32;101473;1349;61345;-83
2022/01/29 03:51:58;;;;;;;;;;;;;;;;;;;;;
2022/01/29 03:55:07;;;;;;;;;;;;;;;;;;;;;
2022/01/29 03:58:05;;;;;;;;;;;;;;;;;;;;;
2022/01/29 04:04:12;;;;;;;7.10;4.80;;;;;;;20.24;31.30;101238.14;100491;1354;72763;-84
2022/01/29 04:06:49;;;;;;;7.20;4.50;;;;;;;20.24;31.40;101244.44;100804;1354;74255;-81
2022/01/29 04:10:18;;;;;;;6.90;4.60;;;;;;;20.25;31.42;101242.98;100980;1351;62027;-83
2022/01/29 04:13:20;;;;;;;;;;;;;;;;;;;;;
2022/01/29 04:16:19;;;;;;;;;;;;;;;;;;;;;
2022/01/29 04:19:13;;;;;;;7.00;4.70;;;;;;;20.25;31.24;101260.83;101121;1348;75146;-83
2022/01/29 04:22:25;;;;;;;7.00;4.70;;;;;;;20.25;31.36;101265.85;101439;1348;61876;-82
2022/01/29 04:25:52;;;;;;;7.30;4.50;;;;;;;20.24;31.31;101267.31;101194;1348;61430;-82
2022/01/29 04:28:46;;;;;;;7.10;4.70;;;;;;;20.24;31.20;101264.98;101593;1346;73802;-87
2022/01/29 04:41:56;;;;;;;;;;;;;;;;;;;;;
2022/01/29 04:45:09;;;;;;;;;;;;;;;;;;;;;
2022/01/29 04:48:14;;;;;;;6.50;4.60;;;;;;;20.24;31.32;101309.45;102986;1322;61330;-81
2022/01/29 04:51:01;;;;;;;6.90;4.30;;;;;;;20.25;31.35;101315.52;102524;1329;61219;-87
2022/01/29 04:54:19;;;;;;;5.90;4.30;;;;;;;20.25;31.35;101321.79;102277;1334;73992;-78
2022/01/29 04:57:53;;;;;;;6.40;4.60;;;;;;;20.25;31.32;101322.50;101822;1339;75892;-83
2022/01/29 05:00:37;;;;;;;7.70;4.80;;;;;;;20.24;31.34;101321.83;101825;1340;61882;-85
2022/01/29 05:03:39;;;;;;;7.30;4.70;;;;;;;20.25;31.35;101328.58;101808;1339;61182;-83
2022/01/29 05:06:36;;;;;;;7.20;4.80;;;;;;;20.24;31.34;101331.30;101598;1345;73947;-82
2022/01/29 05:09:51;;;;;;;6.60;4.50;;;;;;;20.23;31.32;101325.63;101548;1348;73696;-83
2022/01/29 05:16:43;;;;;;;6.60;4.90;;;;;;;20.23;31.44;101335.48;101408;1351;61661;-82
2022/01/29 05:29:10;;;;;;;;;;;;;;;;;;;;;
2022/01/29 05:32:27;;;;;;;;;;;;;;;;;;;;;
2022/01/29 05:35:34;;;;;;;7.90;5.10;;;;;;;20.22;31.31;101365.90;100797;1354;74971;-83
2022/01/29 05:39:01;;;;;;;;;;;;;;;;;;;;;
2022/01/29 05:42:11;;;;;;;7.10;4.90;;;;;;;20.22;31.09;101379.85;101175;1354;61629;-83
2022/01/29 05:44:57;;;;;;;7.40;5.20;;;;;;;20.22;31.19;101385.36;101189;1354;73093;-85
2022/01/29 05:48:14;;;;;;;7.80;5.00;;;;;;;20.23;31.20;101385.33;101390;1349;75032;-84
2022/01/29 05:51:02;;;;;;;7.40;5.00;;;;;;;20.23;31.36;101392.64;101517;1348;61589;-86
2022/01/29 05:54:17;;;;;;;6.70;5.00;;;;;;;20.23;31.25;101402.83;100822;1355;61195;-88
2022/01/29 05:57:37;;;;;;;7.50;5.10;;;;;;;20.24;31.33;101416.41;100545;1359;73815;-86
2022/01/29 06:00:37;;;;;;;;;;;;;;;;;;;;;
2022/01/29 06:04:17;;;;;;;7.70;4.90;;;;;;;20.24;31.25;101439.97;100554;1357;61268;-84
2022/01/29 06:07:09;;;;;;;8.00;4.90;;;;;;;20.24;31.15;101444.78;100911;1354;61301;-85
2022/01/29 06:10:02;;;;;;;8.90;5.20;;;;;;;20.24;31.42;101441.21;100743;1357;73092;-85
2022/01/29 06:13:25;;;;;;;7.80;5.10;;;;;;;20.25;31.46;101448.87;100984;1354;75291;-82
2022/01/29 06:16:49;;;;;;;7.70;5.20;;;;;;;20.24;31.28;101455.31;101355;1351;61892;-83
2022/01/29 06:19:49;;;;;;;9.20;5.50;;;;;;;20.25;31.19;101450.11;101107;1354;61489;-81
2022/01/29 06:22:29;;;;;;;7.80;5.10;;;;;;;20.25;31.32;101457.23;101395;1348;73091;-88
2022/01/29 06:25:34;;;;;;;8.30;5.10;;;;;;;20.25;31.28;101464.73;101595;1346;74895;-79
2022/01/29 06:28:46;;;;;;;8.20;4.40;;;;;;;20.26;31.24;101470.95;101704;1343;61191;-82
2022/01/29 06:31:43;;;;;;;7.80;5.40;;;;;;;20.25;31.31;101474.41;101997;1334;61197;-83
2022/01/29 06:34:58;;;;;;;7.30;4.90;;;;;;;20.26;31.26;101472.56;102560;1326;73896;-85
2022/01/29 06:37:54;;;;;;;7.90;5.50;;;;;;;20.26;31.27;101477.23;102588;1329;75883;-83
2022/01/29 06:40:44;;;;;;;6.90;4.90;;;;;;;20.27;31.28;101488.98;102402;1332;61284;-82
2022/01/29 06:43:56;;;;;;;7.40;5.10;;;;;;;20.27;31.32;101497.39;102510;1332;61190;-78
2022/01/29 06:46:46;;;;;;;7.30;5.20;;;;;;;20.27;31.29;101497.38;102416;1332;73928;-84
2022/01/29 06:50:08;;;;;;;7.40;5.10;;;;;;;20.27;31.31;101501.33;102512;1332;74910;-87
2022/01/29 06:52:56;;;;;;;7.50;5.10;;;;;;;20.27;31.30;101503.27;102694;1329;61314;-82
2022/01/29 06:56:04;;;;;;;8.90;5.40;;;;;;;20.27;31.24;101504.69;102614;1325;61219;-81
2022/01/29 06:59:00;;;;;;;8.30;5.50;;;;;;;20.28;31.33;101507.85;102753;1325;73820;-84
2022/01/29 07:01:49;;;;;;;9.20;5.30;;;;;;;20.28;31.33;101509.83;102728;1325;74826;-83
2022/01/29 07:04:45;;;;;;;;;;;;;;;;;;;;;
2022/01/29 07:07:46;;;;;;;9.10;6.00;;;;;;;20.29;31.29;101519.41;102956;1324;61243;-84
2022/01/29 07:10:37;;;;;;;9.10;5.80;;;;;;;20.29;31.36;101520.30;102770;1324;73939;-83
2022/01/29 07:14:01;;;;;;;;;;;;;;;;;;;;;
2022/01/29 07:16:49;;;;;;;8.40;5.60;;;;;;;20.29;31.35;101538.01;103652;1319;61214;-80
2022/01/29 07:20:24;;;;;;;;;;;;;;;20.30;31.34;101537.05;104231;1313;61243;-84
2022/01/29 07:23:06;;;;;;;11.10;6.00;;;;;;;20.28;31.37;101540.77;104132;1314;71568;-83
2022/01/29 07:26:13;;;;;;;8.30;6.40;;;;;;;20.29;31.37;101537.48;104201;1313;74716;-83
2022/01/29 07:28:44;;;;;;;9.50;5.80;;;;;;;20.29;31.39;101541.23;104165;1314;61157;-86
2022/01/29 07:32:13;;;;;;;8.00;6.20;;;;;;;20.30;31.43;101540.65;104109;1313;61271;-85
2022/01/29 07:35:32;;;;;;;8.60;5.60;;;;;;;20.30;31.39;101540.27;102683;1326;71756;-86
2022/01/29 07:38:42;;;;;;;10.00;6.50;;;;;;;20.30;31.43;101540.08;102540;1331;74789;-84
2022/01/29 07:41:48;;;;;;;9.60;6.70;;;;;;;20.31;31.40;101546.66;102074;1335;61740;-82
2022/01/29 07:44:36;;;;;;;9.40;6.40;;;;;;;20.31;31.35;101556.65;101623;1346;61886;-82
2022/01/29 07:47:42;;;;;;;9.40;6.90;;;;;;;20.32;31.43;101560.00;101560;1346;74253;-81
2022/01/29 07:50:48;;;;;;;11.10;6.20;;;;;;;20.32;31.38;101563.39;100968;1354;75202;-82
2022/01/29 07:53:41;;;;;;;;;;;;;;;;;;;;;
2022/01/29 07:56:55;;;;;;;8.00;6.00;;;;;;;20.33;31.41;101569.98;100941;1354;61272;-85
2022/01/29 07:59:54;;;;;;;;;;;;;;;;;;;;;
2022/01/29 08:02:26;;;;;;;11.10;7.40;;;;;;;20.34;31.41;101569.91;100217;1363;75990;-82
2022/01/29 08:05:36;;;;;;;9.80;6.90;;;;;;;20.34;31.40;101569.39;100243;1364;62147;-82
2022/01/29 08:09:02;;;;;;;9.40;6.80;;;;;;;20.33;31.28;101576.24;99742;1366;61403;-81
2022/01/29 08:11:57;;;;;;;9.40;6.40;;;;;;;20.34;31.40;101582.98;99307;1367;73727;-85
2022/01/29 08:15:03;;;;;;;9.60;6.70;;;;;;;20.34;31.44;101582.60;99662;1363;74806;-83
2022/01/29 08:18:03;;;;;;;9.50;6.30;;;;;;;20.34;31.49;101581.73;99940;1360;61299;-81
2022/01/29 08:21:09;;;;;;;8.30;6.50;;;;;;;20.34;31.41;101586.91;100263;1356;61388;-82
2022/01/29 08:24:04;;;;;;;7.60;6.10;;;;;;;20.34;31.43;101588.50;100819;1354;75863;-81
2022/01/29 08:26:44;;;;;;;9.70;6.20;;;;;;;20.35;31.30;101592.23;100747;1352;74266;-82
2022/01/29 08:29:41;;;;;;;8.00;6.20;;;;;;;20.35;31.36;101591.34;101204;1351;61102;-84
2022/01/29 08:32:45;;;;;;;9.80;5.80;;;;;;;20.35;31.37;101596.32;101401;1351;61282;-84
2022/01/29 08:35:44;;;;;;;9.70;6.50;;;;;;;20.35;31.56;101597.59;101394;1351;71933;-82
2022/01/29 08:38:49;;;;;;;14.00;6.00;;;;;;;20.34;31.38;101602.23;101431;1352;76096;-82
2022/01/29 08:41:38;;;;;;;11.10;7.20;;;;;;;20.34;31.38;101603.67;101590;1348;61355;-81
2022/01/29 08:45:03;;;;;;;9.00;6.40;;;;;;;20.34;31.44;101605.46;101219;1347;61271;-83
2022/01/29 08:47:57;;;;;;;10.80;7.00;;;;;;;20.35;31.45;101608.67;101581;1345;72680;-82
2022/01/29 08:50:51;;;;;;;10.50;7.50;;;;;;;20.35;31.44;101608.66;101635;1344;75679;-84
2022/01/29 08:54:00;;;;;;;9.80;7.30;;;;;;;20.35;31.48;101610.80;101546;1348;61369;-79
2022/01/29 08:56:58;;;;;;;;;;;;;;;;;;;;;
2022/01/29 09:00:05;;;;;;;;;;;;;;;;;;;;;
2022/01/29 09:03:10;;;;;;;9.80;7.70;;;;;;;20.34;31.40;101615.30;101571;1345;75862;-84
2022/01/29 09:06:06;;;;;;;10.90;7.40;;;;;;;20.34;31.54;101618.68;101556;1346;61437;-82
2022/01/29 09:08:52;;;;;;;;;;;;;;;;;;;;;
2022/01/29 09:11:38;;;;;;;11.50;8.20;;;;;;;20.35;31.48;101620.63;101531;1346;73891;-86
2022/01/29 09:14:43;;;;;;;11.60;7.90;;;;;;;20.34;31.55;101620.85;101359;1351;75020;-80
2022/01/29 09:17:48;;;;;;;14.50;8.30;;;;;;;20.34;31.49;101626.39;101127;1352;60480;-83
2022/01/29 09:20:53;;;;;;;10.40;8.00;;;;;;;20.34;31.46;101627.11;101342;1351;61379;-85
2022/01/29 09:24:13;;;;;;;;;;;;;;;;;;;;;
2022/01/29 09:27:01;;;;;;;11.40;8.40;;;;;;;20.33;31.60;101624.46;100924;1355;73709;-81
2022/01/29 09:30:03;;;;;;;11.20;8.00;;;;;;;20.34;31.55;101619.60;101039;1350;61250;-83
2022/01/29 09:32:39;;;;;;;10.00;8.00;;;;;;;20.34;31.55;101622.98;101262;1349;61379;-85
2022/01/29 09:35:25;;;;;;;11.10;7.70;;;;;;;20.35;31.55;101622.06;101412;1350;73069;-86
2022/01/29 09:38:13;;;;;;;10.70;7.60;;;;;;;20.35;31.55;101622.96;101372;1346;74682;-80
2022/01/29 09:41:02;;;;;;;11.40;8.00;;;;;;;20.35;31.70;101624.17;101439;1342;61667;-80
2022/01/29 09:43:45;;;;;;;9.00;7.30;;;;;;;20.35;31.59;101621.66;101723;1340;61424;-86
2022/01/29 09:46:53;;;;;;;9.70;7.30;;;;;;;20.36;31.63;101621.14;101819;1340;72178;-81
2022/01/29 09:49:46;;;;;;;8.70;6.90;;;;;;;20.35;31.62;101615.05;101635;1343;74299;-81
2022/01/29 09:52:46;;;;;;;11.30;7.40;;;;;;;20.35;31.72;101610.60;101581;1345;61654;-83
2022/01/29 09:55:53;;;;;;;9.70;7.10;;;;;;;20.36;31.63;101613.92;101767;1342;61301;-83
2022/01/29 09:58:57;;;;;;;9.90;6.80;;;;;;;20.36;31.57;101611.61;101795;1342;73148;-84
2022/01/29 10:01:46;;;;;;;9.50;7.00;;;;;;;20.36;31.60;101608.57;102067;1334;76275;-82
2022/01/29 10:04:39;;;;;;;8.90;6.40;;;;;;;20.36;31.68;101610.17;102305;1331;61231;-86
2022/01/29 10:08:10;;;;;;;8.60;6.30;;;;;;;20.37;31.69;101612.98;102506;1328;61207;-84
2022/01/29 10:11:16;;;;;;;8.50;6.20;;;;;;;20.36;31.65;101619.64;102747;1328;73870;-82
2022/01/29 10:14:14;;;;;;;8.40;6.40;;;;;;;20.37;31.64;101620.48;102692;1328;74643;-82
2022/01/29 10:17:24;;;;;;;8.40;6.00;;;;;;;20.37;31.66;101615.66;102014;1331;61480;-82
2022/01/29 10:20:07;;;;;;;8.90;6.10;;;;;;;20.37;31.65;101613.52;102342;1331;61315;-84
2022/01/29 10:23:09;;;;;;;7.90;5.80;;;;;;;20.38;31.59;101610.46;102451;1331;73061;-88
2022/01/29 10:26:26;;;;;;;;;;;;;;;;;;;;;
2022/01/29 10:29:18;;;;;;;8.90;5.90;;;;;;;20.36;31.71;101612.69;102389;1330;61516;-86
2022/01/29 10:32:19;;;;;;;8.80;5.80;;;;;;;20.37;31.67;101611.20;102462;1330;61477;-82
2022/01/29 10:35:28;;;;;;;10.90;6.00;;;;;;;20.38;31.68;101609.91;101768;1340;74287;-79
2022/01/29 10:37:59;;;;;;;7.90;5.50;;;;;;;20.38;31.70;101607.92;101721;1340;75224;-79
2022/01/29 10:40:56;;;;;;;8.40;5.90;;;;;;;20.38;31.65;101602.89;101615;1340;61238;-79
2022/01/29 10:43:46;;;;;;;8.50;5.70;;;;;;;20.39;31.70;101602.52;101783;1340;62092;-85
2022/01/29 10:46:52;;;;;;;8.10;5.20;;;;;;;20.40;31.69;101598.20;102044;1334;72937;-83
2022/01/29 10:50:07;;;;;;;8.20;5.50;;;;;;;20.40;31.70;101598.17;101865;1337;75228;-86
2022/01/29 10:53:15;;;;;;;8.20;5.70;;;;;;;20.40;31.69;101592.80;101705;1343;61202;-77
2022/01/29 10:56:04;;;;;;;8.70;5.80;;;;;;;20.40;31.63;101594.24;101746;1340;61770;-81
2022/01/29 10:59:15;;;;;;;;;;;;;;;;;;;;;
2022/01/29 11:02:27;;;;;;;;;;;;;;;;;;;;;
2022/01/29 11:05:09;;;;;;;8.20;5.30;;;;;;;20.41;31.75;101593.09;101945;1342;61442;-79
2022/01/29 11:08:01;;;;;;;6.20;4.80;;;;;;;20.42;31.81;101589.30;101729;1340;61252;-83
2022/01/29 11:11:13;;;;;;;7.60;5.20;;;;;;;20.42;31.77;101585.70;101570;1346;73247;-84
2022/01/29 11:13:59;;;;;;;7.30;5.00;;;;;;;20.43;31.81;101579.77;101618;1346;76513;-82
2022/01/29 11:17:07;;;;;;;9.90;4.90;;;;;;;20.43;31.76;101581.54;101565;1346;61827;-82
2022/01/29 11:19:53;;;;;;;7.30;4.70;;;;;;;20.42;31.85;101571.95;101462;1349;61387;-84
2022/01/29 11:22:42;;;;;;;6.90;4.90;;;;;;;20.43;31.90;101575.98;101430;1349;72696;-84
2022/01/29 11:25:43;;;;;;;8.10;5.60;;;;;;;20.44;31.91;101571.88;101403;1349;74993;-84
2022/01/29 11:28:45;;;;;;;;;;;;;;;;;;;;;
2022/01/29 11:31:50;;;;;;;6.00;4.20;;;;;;;20.41;31.70;101569.67;101340;1351;60507;-82
2022/01/29 11:35:08;;;;;;;7.40;5.00;;;;;;;20.42;31.84;101562.11;101430;1350;71470;-84
2022/01/29 11:38:27;;;;;;;;;;;;;;;;;;;;;
2022/01/29 11:41:41;;;;;;;;;;;;;;;;;;;;;
2022/01/29 11:44:57;;;;;;;;;;;;;;;;;;;;;
2022/01/29 11:48:03;;;;;;;6.10;4.50;;;;;;;20.42;31.77;101552.11;101201;1352;72932;-79
2022/01/29 11:51:26;;;;;;;7.90;4.70;;;;;;;20.43;31.77;101546.36;101496;1346;74407;-86
2022/01/29 11:54:16;;;;;;;;;;;;;;;;;;;;;
2022/01/29 11:57:22;;;;;;;7.80;4.40;;;;;;;20.43;31.81;101540.23;101044;1346;61226;-88
2022/01/29 12:00:27;;;;;;;6.20;4.60;;;;;;;20.44;31.82;101538.06;101673;1346;73933;-85
2022/01/29 12:04:02;;;;;;;7.30;4.70;;;;;;;20.43;31.86;101538.80;101679;1346;74181;-83
2022/01/29 12:06:51;;;;;;;6.10;4.30;;;;;;;20.44;31.88;101534.13;101495;1348;61619;-82
2022/01/29 12:10:24;;;;;;;5.40;4.40;;;;;;;20.43;31.85;101534.16;101714;1342;61878;-81
2022/01/29 12:13:41;;;;;;;;;;;;;;;;;;;;;
2022/01/29 12:17:03;;;;;;;5.80;4.50;;;;;;;20.44;31.83;101536.45;101603;1346;73678;-82
2022/01/29 12:19:58;;;;;;;6.70;4.40;;;;;;;20.44;31.83;101535.04;101629;1346;61812;-82
2022/01/29 12:22:44;;;;;;;6.80;4.30;;;;;;;20.44;31.89;101529.65;101656;1346;61677;-84
2022/01/29 12:25:56;;;;;;;5.70;4.10;;;;;;;20.44;31.88;101527.68;101532;1348;73914;-79
2022/01/29 12:29:02;;;;;;;;;;;;;;;;;;;;;
2022/01/29 12:31:58;;;;;;;;;;;;;;;;;;;;;
2022/01/29 12:34:58;;;;;;;6.50;4.30;;;;;;;20.44;31.77;101524.27;101570;1348;61368;-84
2022/01/29 12:37:57;;;;;;;5.40;4.00;;;;;;;20.43;31.90;101522.70;101639;1345;74149;-81
2022/01/29 12:40:55;;;;;;;5.90;4.10;;;;;;;20.45;31.94;101520.30;101540;1349;74863;-83
2022/01/29 12:43:54;;;;;;;7.60;3.90;;;;;;;20.44;31.94;101516.75;101712;1343;61908;-83
2022/01/29 12:46:44;;;;;;;5.60;3.70;;;;;;;20.45;32.00;101516.02;101568;1346;61225;-83
2022/01/29 12:49:50;;;;;;;5.50;4.10;;;;;;;20.45;31.92;101516.20;101656;1346;71516;-84
2022/01/29 12:53:06;;;;;;;;;;;;;;;;;;;;;
2022/01/29 12:56:04;;;;;;;5.10;3.70;;;;;;;20.45;31.94;101521.71;101772;1337;61436;-81
2022/01/29 12:59:11;;;;;;;5.60;3.90;;;;;;;20.45;31.98;101523.51;102174;1331;61243;-84
2022/01/29 13:02:06;;;;;;;6.20;4.00;;;;;;;20.46;31.95;101518.81;102394;1331;74139;-78
2022/01/29 13:04:55;;;;;;;5.80;3.90;;;;;;;20.47;32.01;101519.33;102115;1331;75183;-85
2022/01/29 13:07:34;;;;;;;5.90;4.10;;;;;;;20.46;31.94;101523.61;102399;1331;61548;-81
2022/01/29 13:10:30;;;;;;;4.90;3.70;;;;;;;20.47;31.93;101526.27;102225;1331;61329;-80
2022/01/29 13:13:05;;;;;;;5.90;3.60;;;;;;;20.47;31.97;101527.33;102167;1331;74005;-86
2022/01/29 13:15:58;;;;;;;6.00;3.70;;;;;;;20.48;31.91;101525.69;102405;1331;75863;-86
2022/01/29 13:19:07;;;;;;;;;;;;;;;;;;;;;
2022/01/29 13:22:05;;;;;;;4.90;3.80;;;;;;;20.48;31.92;101528.73;102791;1325;61307;-83
2022/01/29 13:25:00;;;;;;;;;;;;;;;;;;;;;
2022/01/29 13:27:57;;;;;;;6.00;3.90;;;;;;;20.49;31.97;101531.89;102906;1322;74810;-80
2022/01/29 13:30:43;;;;;;;6.20;3.80;;;;;;;20.49;31.98;101530.24;102984;1322;61346;-84
2022/01/29 13:33:57;;;;;;;5.60;3.60;;;;;;;20.50;32.04;101532.90;103062;1322;61614;-82
2022/01/29 13:37:06;;;;;;;4.90;3.50;;;;;;;20.49;31.98;101527.22;102490;1331;72755;-85
2022/01/29 13:40:32;;;;;;;5.30;3.50;;;;;;;20.49;31.95;101527.38;102411;1331;74417;-87
2022/01/29 13:43:12;;;;;;;5.50;3.90;;;;;;;20.50;31.92;101527.55;102193;1334;61332;-80
2022/01/29 13:46:21;;;;;;;5.40;3.80;;;;;;;20.51;31.89;101529.45;102046;1334;61228;-87
2022/01/29 13:49:30;;;;;;;6.20;3.80;;;;;;;20.51;31.91;101528.00;102046;1334;74190;-90
2022/01/29 13:52:16;;;;;;;5.40;3.70;;;;;;;20.51;32.00;101524.05;102083;1334;74774;-83
2022/01/29 13:55:37;;;;;;;5.80;3.60;;;;;;;20.51;31.99;101525.48;102089;1334;61465;-83
2022/01/29 13:58:36;;;;;;;5.00;3.60;;;;;;;20.52;32.02;101524.56;102156;1333;61482;-79
2022/01/29 14:02:14;;;;;;;5.80;3.80;;;;;;;20.53;32.03;101524.16;101947;1334;74035;-83
2022/01/29 14:05:00;;;;;;;5.60;3.60;;;;;;;20.53;32.00;101525.58;101747;1339;74726;-80
2022/01/29 14:07:45;;;;;;;5.40;3.70;;;;;;;20.53;31.98;101527.69;101822;1340;61247;-81
2022/01/29 14:10:58;;;;;;;5.70;3.40;;;;;;;20.53;32.08;101528.40;101869;1340;61217;-81
2022/01/29 14:14:02;;;;;;;6.20;3.30;;;;;;;20.54;32.08;101527.31;101929;1334;73886;-85
2022/01/29 14:16:41;;;;;;;;;;;;;;;;;;;;;
2022/01/29 14:19:44;;;;;;;7.30;3.50;;;;;;;20.54;31.98;101526.20;102346;1328;61353;-83
2022/01/29 14:22:42;;;;;;;4.40;3.20;;;;;;;20.54;31.99;101522.99;102616;1328;61224;-81
2022/01/29 14:25:58;;;;;;;4.60;3.10;;;;;;;20.53;31.95;101522.86;102639;1327;72982;-84
2022/01/29 14:28:56;;;;;;;5.20;3.60;;;;;;;20.54;32.09;101522.30;102354;1332;73624;-82
2022/01/29 14:31:53;;;;;;;5.30;3.70;;;;;;;20.54;31.96;101518.89;102187;1332;61242;-79
2022/01/29 14:34:59;;;;;;;5.80;3.20;;;;;;;20.55;32.07;101520.29;102143;1334;61251;-81
2022/01/29 14:37:55;;;;;;;4.70;3.30;;;;;;;20.55;32.06;101512.95;101938;1337;72925;-83
2022/01/29 14:41:01;;;;;;;4.30;2.90;;;;;;;20.56;31.96;101517.18;102156;1331;73541;-84
2022/01/29 14:44:26;;;;;;;5.00;3.40;;;;;;;20.56;32.00;101516.09;102499;1331;61354;-82
2022/01/29 14:47:01;;;;;;;4.90;3.30;;;;;;;20.56;31.95;101515.70;102293;1331;61535;-80
2022/01/29 14:50:07;;;;;;;4.80;3.50;;;;;;;20.57;32.03;101522.80;102274;1331;73023;-81
2022/01/29 14:52:42;;;;;;;5.00;3.30;;;;;;;20.57;31.99;101518.70;102427;1331;74705;-81
2022/01/29 14:55:48;;;;;;;5.00;3.40;;;;;;;20.58;32.03;101514.04;102411;1331;61218;-81
2022/01/29 14:58:44;;;;;;;;;;;;;;;;;;;;;
2022/01/29 15:01:33;;;;;;;;;;;;;;;20.58;31.98;101510.94;102535;1331;72888;-78
2022/01/29 15:04:21;;;;;;;5.00;2.90;;;;;;;20.56;31.91;101510.35;102499;1331;74962;-82
2022/01/29 15:06:58;;;;;;;4.70;3.30;;;;;;;20.58;31.90;101508.10;102623;1327;61547;-83
2022/01/29 15:09:49;;;;;;;4.70;3.40;;;;;;;20.58;31.86;101513.12;102640;1328;61804;-80
2022/01/29 15:12:45;;;;;;;4.70;3.00;;;;;;;20.58;31.85;101513.28;102541;1327;72115;-83
2022/01/29 15:15:24;;;;;;;4.10;2.90;;;;;;;20.58;31.87;101516.86;103047;1317;75840;-81
2022/01/29 15:18:10;;;;;;;4.90;3.30;;;;;;;20.59;31.84;101516.28;102870;1321;61330;-80
2022/01/29 15:21:07;;;;;;;;;;;;;;;;;;;;;
2022/01/29 15:24:06;;;;;;;;;;;;;;;;;;;;;
2022/01/29 15:27:04;;;;;;;;;;;;;;;;;;;;;
2022/01/29 15:29:59;;;;;;;5.10;3.40;;;;;;;20.60;31.86;101516.91;102566;1328;61648;-80
2022/01/29 15:32:59;;;;;;;5.20;3.60;;;;;;;20.61;31.87;101516.52;102654;1327;61649;-83
2022/01/29 15:35:52;;;;;;;5.90;3.60;;;;;;;20.60;31.88;101515.65;102493;1330;72790;-84
2022/01/29 15:38:21;;;;;;;5.40;3.60;;;;;;;20.60;31.89;101512.42;102431;1331;74774;-86
2022/01/29 15:41:11;;;;;;;4.70;3.30;;;;;;;20.61;31.86;101512.80;102460;1331;61220;-86
2022/01/29 15:44:23;;;;;;;6.20;3.50;;;;;;;20.60;31.82;101509.41;102081;1337;61624;-83
2022/01/29 15:47:17;;;;;;;5.20;3.30;;;;;;;20.60;31.75;101513.54;101919;1337;72020;-80